Cambridgeport, VT (05141)

12:00 PM EST on January 27, 2015 (GMT -0500)
Popple Dungeon Road | Change Station
CLOSE
Current Station
Personal Weather Station
Location: Chester, VT
Elevation: 1690 ft
Nearby Weather Stations

Elev 1690 ft 43.22 °N, 72.69 °W | Updated 20 seconds ago

Snow
Snow
11.7 °F
Feels Like 12 °F
N
0.0
Wind Variable Wind from ENE
Gusts 0.0 mph

Today
High -- | Low -- °F
--% Chance of Precip.
Yesterday
High -- | Low -- °F
Precip. -- in
7:10 AM 4:55 PM
First Quarter, 55% visible
Pressure 29.71 in
Visibility 1.2 miles
Clouds Mostly Cloudy 2600 ft
Overcast 3300 ft
Windchill 12 °F
Dew Point 1 °F
Humidity 63%
Rainfall 0.00 in
Snow Depth Not available.
UV 1.0 out of 12
Pollen .10 out of 12
Air Quality Not available.
Flu Activity Not available.
METAR KVSF 271654Z AUTO 01007KT 330V070 1 1/4SM -SN BKN026 OVC033 M09/M14 A2968 RMK AO2 SLP061 P0000 T10941139 TSNO

More Conditions Fewer Conditions

Pressure 29.71 in
Visibility 1.2 miles
Clouds Mostly Cloudy 2600 ft
Overcast 3300 ft
Windchill 12 °F
Dew Point 1 °F
Humidity 63%
Rainfall 0.00 in
Snow Depth Not available.
UV 1.0 out of 12
Pollen .10 out of 12
Air Quality Not available.
Flu Activity Not available.
METAR KVSF 271654Z AUTO 01007KT 330V070 1 1/4SM -SN BKN026 OVC033 M09/M14 A2968 RMK AO2 SLP061 P0000 T10941139 TSNO

More Conditions Fewer Conditions

10-Day Weather Forecast

Almanac

Astronomy

Jan. 27, 2015 Rise Set
Actual Time
Civil Twilight
Nautical Twilight
Astronomical Twilight
Moon
Length of Visible Light
Length of Day
Tomorrow will be .
, % of the Moon is Illuminated

Today's Extremes

State Highs State Lows

Community

WunderPhotos

Upload Photos

1,790,729 photos uploaded!

WunderBlogs® & News

Nearby

Air Quality

  Air Quality AQ Index Pollutant
Not available.

Snow Depth

Station Depth Elevation

Earthquake Activity

City Distance Mag. Time & Date
Minimum magnitude displayed is 2.5.

Coastal Water Temperatures

Place Temperature

Nearby Weather Stations